Time;durP1;ratioP1;P1;durP2;ratioP2;P2;SDS_P1;SDS_P2;PMS_P1;PMS_P2;Temp;Humidity;BMP_temperature;BMP_pressure;BME280_temperature;BME280_humidity;BME280_pressure;Samples;Min_cycle;Max_cycle;Signal;HPM_P1;HPM_P2
2023/11/01 00:00:28;;;;;;;0.93;0.70;;;18.50;70.60;;;;;;5001659;28;20056;-65
2023/11/01 00:02:54;;;;;;;1.70;0.85;;;18.50;70.60;;;;;;5018498;28;20040;-65
2023/11/01 00:05:19;;;;;;;1.55;0.90;;;18.50;70.60;;;;;;5016990;28;20112;-66
2023/11/01 00:07:45;;;;;;;1.73;1.00;;;18.50;70.60;;;;;;5018517;28;20053;-67
2023/11/01 00:10:10;;;;;;;1.33;0.88;;;18.50;70.60;;;;;;5021357;28;20036;-65
2023/11/01 00:12:36;;;;;;;0.82;0.82;;;18.50;70.60;;;;;;5023265;28;20116;-66
2023/11/01 00:15:01;;;;;;;1.77;1.10;;;18.50;70.50;;;;;;5001777;28;20077;-67
2023/11/01 00:17:27;;;;;;;1.00;0.70;;;18.50;70.50;;;;;;5018564;28;20038;-65
2023/11/01 00:19:53;;;;;;;1.45;0.77;;;18.50;70.60;;;;;;5020095;28;20025;-65
2023/11/01 00:22:19;;;;;;;1.55;0.85;;;18.50;70.60;;;;;;5018574;28;20029;-67
2023/11/01 00:24:44;;;;;;;1.30;0.77;;;18.50;70.50;;;;;;5016952;28;20028;-66
2023/11/01 00:27:10;;;;;;;1.67;0.70;;;18.50;70.60;;;;;;5021495;28;20033;-65
2023/11/01 00:29:35;;;;;;;1.60;0.70;;;18.50;70.60;;;;;;5021407;28;20041;-66
2023/11/01 00:32:01;;;;;;;0.85;0.60;;;18.50;70.50;;;;;;5018045;28;20427;-65
2023/11/01 00:34:26;;;;;;;2.15;0.70;;;18.50;70.50;;;;;;5007105;28;20030;-65
2023/11/01 00:36:52;;;;;;;1.35;0.80;;;18.50;70.50;;;;;;5018197;28;20522;-64
2023/11/01 00:39:17;;;;;;;1.08;0.80;;;18.50;70.50;;;;;;5017242;28;20025;-65
2023/11/01 00:41:43;;;;;;;1.88;1.00;;;18.40;70.50;;;;;;5022538;28;20029;-66
2023/11/01 00:44:08;;;;;;;1.42;0.95;;;18.50;70.50;;;;;;5004588;28;20029;-65
2023/11/01 00:46:34;;;;;;;1.17;0.70;;;18.50;70.50;;;;;;5023468;28;20029;-66
2023/11/01 00:49:00;;;;;;;0.77;0.60;;;18.50;70.50;;;;;;5020732;28;20033;-65
2023/11/01 00:51:25;;;;;;;1.10;0.90;;;18.40;70.50;;;;;;5017524;28;20038;-65
2023/11/01 00:53:50;;;;;;;1.08;0.80;;;18.50;70.50;;;;;;5020961;28;20036;-66
2023/11/01 00:56:16;;;;;;;1.35;0.80;;;18.50;70.50;;;;;;5021381;28;20530;-66
2023/11/01 00:58:42;;;;;;;1.10;0.70;;;18.50;70.50;;;;;;5022348;28;20029;-66
2023/11/01 01:01:07;;;;;;;0.70;0.70;;;18.50;70.50;;;;;;5015909;28;20040;-66
2023/11/01 01:03:33;;;;;;;4.20;0.77;;;18.40;70.40;;;;;;5017041;28;20030;-66
2023/11/01 01:06:00;;;;;;;2.42;1.13;;;18.40;70.50;;;;;;5016285;28;20119;-66
2023/11/01 01:08:25;;;;;;;1.25;0.90;;;18.40;70.50;;;;;;5015749;28;20048;-66
2023/11/01 01:10:51;;;;;;;1.05;0.95;;;18.50;70.50;;;;;;5023214;28;20488;-66
2023/11/01 01:13:16;;;;;;;1.63;0.60;;;18.50;70.50;;;;;;5022446;28;20064;-66
2023/11/01 01:15:42;;;;;;;1.98;1.50;;;18.40;70.40;;;;;;5021768;28;20029;-65
2023/11/01 01:18:07;;;;;;;1.55;0.80;;;18.40;70.40;;;;;;5019398;28;20049;-65
2023/11/01 01:20:33;;;;;;;0.95;0.60;;;18.40;70.40;;;;;;5020121;28;20030;-65
2023/11/01 01:22:58;;;;;;;1.20;0.60;;;18.40;70.40;;;;;;5017479;28;20030;-65
2023/11/01 01:25:24;;;;;;;0.75;0.70;;;18.40;70.40;;;;;;5020629;28;20030;-65
2023/11/01 01:27:49;;;;;;;1.00;0.70;;;18.40;70.40;;;;;;5017972;28;20614;-67
2023/11/01 01:30:15;;;;;;;1.25;0.75;;;18.40;70.40;;;;;;5015687;28;20048;-68
2023/11/01 01:32:40;;;;;;;1.05;0.95;;;18.40;70.40;;;;;;5015910;28;20029;-66
2023/11/01 01:35:06;;;;;;;1.75;0.80;;;18.40;70.40;;;;;;5016331;28;20034;-65
2023/11/01 01:37:32;;;;;;;1.45;0.65;;;18.40;70.40;;;;;;5015234;28;20030;-67
2023/11/01 01:39:57;;;;;;;1.67;0.70;;;18.40;70.40;;;;;;5021049;28;20147;-68
2023/11/01 01:42:23;;;;;;;1.42;0.85;;;18.40;70.40;;;;;;5021630;28;20049;-66
2023/11/01 01:44:50;;;;;;;0.90;0.68;;;18.40;70.40;;;;;;5020620;28;20060;-66
2023/11/01 01:47:17;;;;;;;0.88;0.60;;;18.40;70.40;;;;;;5017041;28;20064;-67
2023/11/01 01:49:42;;;;;;;1.23;0.70;;;18.40;70.40;;;;;;5018878;28;20098;-66
2023/11/01 01:52:08;;;;;;;0.80;0.80;;;18.40;70.40;;;;;;5020172;28;20396;-65
2023/11/01 01:54:34;;;;;;;3.10;0.75;;;18.40;70.40;;;;;;5005423;28;20030;-66
2023/11/01 01:56:59;;;;;;;1.90;1.10;;;18.40;70.40;;;;;;5018467;28;20036;-66
2023/11/01 01:59:25;;;;;;;1.35;0.68;;;18.40;70.40;;;;;;5013558;28;20030;-66
2023/11/01 02:01:55;;;;;;;1.08;0.52;;;18.40;70.40;;;;;;5014043;28;20121;-66
2023/11/01 02:04:20;;;;;;;1.05;0.55;;;18.40;70.40;;;;;;5014836;28;20097;-67
2023/11/01 02:06:46;;;;;;;2.35;0.60;;;18.40;70.40;;;;;;5015131;28;20522;-67
2023/11/01 02:09:15;;;;;;;1.40;0.75;;;18.40;71.10;;;;;;5021690;28;20033;-66
2023/11/01 02:11:41;;;;;;;1.30;0.80;;;18.40;70.40;;;;;;5017937;28;20072;-64
2023/11/01 02:14:07;;;;;;;0.63;0.60;;;18.40;70.40;;;;;;5017592;28;20030;-66
2023/11/01 02:16:32;;;;;;;0.77;0.50;;;18.40;70.40;;;;;;5002784;28;20492;-66
2023/11/01 02:18:58;;;;;;;1.05;0.70;;;18.40;70.30;;;;;;5017627;28;20046;-66
2023/11/01 02:21:24;;;;;;;1.27;0.68;;;18.40;70.40;;;;;;5021402;28;20026;-68
2023/11/01 02:23:49;;;;;;;1.67;0.70;;;18.40;71.00;;;;;;5017830;28;20030;-67
2023/11/01 02:26:15;;;;;;;1.65;0.70;;;18.40;70.40;;;;;;5014569;28;20030;-67
2023/11/01 02:28:41;;;;;;;1.10;0.60;;;18.40;70.40;;;;;;5012868;28;20113;-67
2023/11/01 02:31:08;;;;;;;0.63;0.40;;;18.40;70.30;;;;;;4997843;28;20034;-66
2023/11/01 02:33:33;;;;;;;0.73;0.60;;;18.40;70.30;;;;;;5016180;28;20029;-67
2023/11/01 02:35:59;;;;;;;1.02;0.65;;;18.40;70.30;;;;;;5014542;28;20041;-67
2023/11/01 02:38:24;;;;;;;0.60;0.50;;;18.40;70.30;;;;;;5020103;28;21309;-68
2023/11/01 02:40:50;;;;;;;0.95;0.60;;;18.40;70.30;;;;;;5021674;28;20030;-67
2023/11/01 02:43:16;;;;;;;1.05;0.52;;;18.40;70.30;;;;;;5018350;28;20432;-67
2023/11/01 02:45:41;;;;;;;1.02;0.63;;;18.40;70.30;;;;;;5014924;28;20250;-65
2023/11/01 02:48:07;;;;;;;0.95;0.55;;;18.40;70.30;;;;;;5017250;28;20041;-67
2023/11/01 02:50:33;;;;;;;0.60;0.60;;;18.40;70.30;;;;;;5019217;28;20385;-65
2023/11/01 02:52:58;;;;;;;1.65;0.50;;;18.40;70.30;;;;;;5017509;28;20121;-67
2023/11/01 02:55:24;;;;;;;0.68;0.50;;;18.40;70.40;;;;;;5015346;28;20080;-67
2023/11/01 02:57:49;;;;;;;0.68;0.60;;;18.40;70.30;;;;;;5012494;28;20347;-67
2023/11/01 03:00:21;;;;;;;1.35;0.68;;;18.40;70.30;;;;;;5014196;28;20480;-66
2023/11/01 03:02:48;;;;;;;3.03;1.02;;;18.40;70.30;;;;;;5009453;28;20038;-67
2023/11/01 03:05:17;;;;;;;0.80;0.68;;;18.40;70.30;;;;;;5010857;28;20026;-66
2023/11/01 03:07:43;;;;;;;1.65;0.77;;;18.40;70.30;;;;;;5015282;28;20108;-67
2023/11/01 03:10:09;;;;;;;1.17;0.45;;;18.40;70.30;;;;;;5019204;28;20191;-67
2023/11/01 03:12:36;;;;;;;0.52;0.52;;;18.30;70.30;;;;;;5019161;28;20502;-67
2023/11/01 03:15:04;;;;;;;2.28;0.75;;;18.40;70.30;;;;;;5016127;28;20084;-67
2023/11/01 03:17:29;;;;;;;0.85;0.40;;;18.40;70.30;;;;;;5019919;28;20033;-64
2023/11/01 03:19:55;;;;;;;0.82;0.40;;;18.40;70.30;;;;;;5017011;28;20022;-66
2023/11/01 03:22:23;;;;;;;0.70;0.60;;;18.40;70.30;;;;;;5014982;28;20029;-67
2023/11/01 03:24:48;;;;;;;0.65;0.50;;;18.40;70.30;;;;;;5015235;28;20028;-67
2023/11/01 03:27:14;;;;;;;0.50;0.50;;;18.40;70.30;;;;;;5011711;28;20026;-67
2023/11/01 03:29:39;;;;;;;0.60;0.52;;;18.40;70.30;;;;;;5013569;28;20075;-65
2023/11/01 03:32:05;;;;;;;2.42;0.85;;;18.30;70.20;;;;;;5013089;28;20057;-66
2023/11/01 03:34:30;;;;;;;0.70;0.50;;;18.30;70.20;;;;;;5012790;28;20052;-67
2023/11/01 03:36:56;;;;;;;0.65;0.47;;;18.40;70.30;;;;;;5021428;28;20156;-65
2023/11/01 03:39:21;;;;;;;0.77;0.50;;;18.30;70.20;;;;;;5020966;28;20569;-68
2023/11/01 03:41:47;;;;;;;0.63;0.50;;;18.40;70.30;;;;;;5021410;28;20026;-65
2023/11/01 03:44:13;;;;;;;0.40;0.40;;;18.30;70.20;;;;;;5018563;28;20025;-65
2023/11/01 03:46:38;;;;;;;0.77;0.50;;;18.30;70.20;;;;;;5022190;28;20037;-65
2023/11/01 03:49:04;;;;;;;0.63;0.50;;;18.30;70.30;;;;;;5021324;28;20109;-67
2023/11/01 03:51:29;;;;;;;1.95;0.57;;;18.30;70.20;;;;;;5019136;28;20403;-67
2023/11/01 03:53:55;;;;;;;1.25;0.55;;;18.30;70.20;;;;;;5018489;28;20034;-67
2023/11/01 03:56:22;;;;;;;0.80;0.50;;;18.30;70.20;;;;;;5017140;28;20034;-65
2023/11/01 03:58:47;;;;;;;1.10;0.60;;;18.30;70.20;;;;;;5014826;28;20041;-66
2023/11/01 04:01:13;;;;;;;0.85;0.70;;;18.30;70.20;;;;;;5017377;28;20042;-65
2023/11/01 04:03:38;;;;;;;1.00;0.40;;;18.40;70.20;;;;;;5016420;28;20087;-67
2023/11/01 04:06:04;;;;;;;1.27;0.60;;;18.40;70.20;;;;;;5020421;28;20055;-68
2023/11/01 04:08:30;;;;;;;0.88;0.60;;;18.30;70.20;;;;;;5021000;28;20037;-67
2023/11/01 04:10:56;;;;;;;0.82;0.47;;;18.30;70.20;;;;;;5020502;28;20044;-67
2023/11/01 04:13:21;;;;;;;1.25;0.63;;;18.30;70.20;;;;;;5020702;28;20037;-66
2023/11/01 04:15:47;;;;;;;1.00;0.50;;;18.30;70.20;;;;;;5021466;28;20104;-65
2023/11/01 04:18:13;;;;;;;1.25;0.50;;;18.30;70.20;;;;;;5018780;28;20029;-65
2023/11/01 04:20:38;;;;;;;0.40;0.40;;;18.30;70.20;;;;;;5018141;28;20480;-65
2023/11/01 04:23:05;;;;;;;0.50;0.40;;;18.30;70.20;;;;;;5017710;28;20083;-63
2023/11/01 04:25:30;;;;;;;0.47;0.40;;;18.30;70.20;;;;;;5013753;28;20060;-66
2023/11/01 04:27:56;;;;;;;0.80;0.60;;;18.30;70.20;;;;;;5015776;28;20034;-67
2023/11/01 04:30:23;;;;;;;0.60;0.40;;;18.30;70.20;;;;;;5017194;28;20436;-68
2023/11/01 04:32:49;;;;;;;0.90;0.43;;;18.30;70.20;;;;;;5017181;28;20129;-67
2023/11/01 04:35:15;;;;;;;0.70;0.43;;;18.30;70.20;;;;;;5018956;28;20030;-65
2023/11/01 04:37:41;;;;;;;0.93;0.50;;;18.30;70.20;;;;;;5020945;28;20034;-67
2023/11/01 04:40:12;;;;;;;0.63;0.40;;;18.30;70.20;;;;;;5019878;28;20036;-65
2023/11/01 04:42:42;;;;;;;0.40;0.40;;;18.30;70.20;;;;;;4996003;28;20045;-65
2023/11/01 04:45:10;;;;;;;0.70;0.40;;;18.30;70.20;;;;;;5001338;28;20041;-67
2023/11/01 04:47:36;;;;;;;0.55;0.40;;;18.30;70.20;;;;;;5019175;28;20064;-65
2023/11/01 04:50:09;;;;;;;0.70;0.40;;;18.30;70.20;;;;;;5017301;28;20060;-64
2023/11/01 04:52:38;;;;;;;0.50;0.40;;;18.30;70.10;;;;;;5016648;28;20499;-67
2023/11/01 04:55:05;;;;;;;1.10;0.45;;;18.30;70.10;;;;;;5012862;28;20047;-67
2023/11/01 04:57:33;;;;;;;0.47;0.30;;;18.30;70.10;;;;;;5012121;28;21042;-67
2023/11/01 04:59:59;;;;;;;0.30;0.30;;;18.30;70.10;;;;;;5015577;28;20512;-68
2023/11/01 05:02:25;;;;;;;1.20;0.47;;;18.30;70.10;;;;;;5015413;28;20040;-66
2023/11/01 05:04:50;;;;;;;1.13;0.43;;;18.30;70.20;;;;;;5020197;28;20106;-65
2023/11/01 05:07:16;;;;;;;1.42;0.50;;;18.30;70.10;;;;;;5018969;28;20075;-67
2023/11/01 05:09:42;;;;;;;0.40;0.30;;;18.30;70.20;;;;;;5005701;28;20149;-66
2023/11/01 05:12:08;;;;;;;0.75;0.50;;;18.30;70.10;;;;;;5017352;28;20507;-66
2023/11/01 05:14:33;;;;;;;0.73;0.47;;;18.30;70.80;;;;;;5018459;28;20485;-67
2023/11/01 05:16:59;;;;;;;0.55;0.40;;;18.30;70.10;;;;;;5017665;28;20041;-66
2023/11/01 05:19:24;;;;;;;0.75;0.30;;;18.30;70.10;;;;;;5016009;28;20335;-67
2023/11/01 05:21:50;;;;;;;0.50;0.35;;;18.30;70.10;;;;;;5014154;28;20022;-67
2023/11/01 05:24:16;;;;;;;0.40;0.40;;;18.30;70.10;;;;;;5011559;28;20034;-64
2023/11/01 05:26:42;;;;;;;0.50;0.50;;;18.30;70.10;;;;;;4999957;28;20598;-65
2023/11/01 05:29:08;;;;;;;0.40;0.30;;;18.30;70.10;;;;;;5003412;28;20521;-66
2023/11/01 05:31:34;;;;;;;0.68;0.30;;;18.30;70.10;;;;;;5017314;28;20039;-64
2023/11/01 05:34:00;;;;;;;0.40;0.30;;;18.30;70.10;;;;;;5018055;28;20029;-66
2023/11/01 05:36:26;;;;;;;0.20;0.20;;;18.30;70.10;;;;;;5018658;28;20038;-65
2023/11/01 05:38:53;;;;;;;0.50;0.50;;;18.30;70.10;;;;;;5018636;28;20535;-63
2023/11/01 05:41:19;;;;;;;0.70;0.40;;;18.30;70.10;;;;;;5017436;28;20033;-67
2023/11/01 05:43:45;;;;;;;0.50;0.50;;;18.30;70.10;;;;;;5018531;28;20052;-65
2023/11/01 05:46:10;;;;;;;0.40;0.40;;;18.30;70.20;;;;;;5016858;28;20029;-65
2023/11/01 05:48:36;;;;;;;1.55;0.38;;;18.30;70.20;;;;;;5018356;28;20566;-65
2023/11/01 05:51:03;;;;;;;1.75;0.77;;;18.30;70.10;;;;;;5014959;28;20059;-65
2023/11/01 05:53:28;;;;;;;1.10;0.40;;;18.30;70.10;;;;;;5017190;28;20037;-66
2023/11/01 05:55:54;;;;;;;4.28;0.88;;;18.30;70.10;;;;;;5015225;28;20030;-66
2023/11/01 05:58:20;;;;;;;1.52;0.57;;;18.30;70.20;;;;;;5013362;28;20109;-67
2023/11/01 06:00:47;;;;;;;1.67;0.47;;;18.30;70.30;;;;;;5020186;28;20243;-66
2023/11/01 06:03:13;;;;;;;1.95;0.60;;;18.30;70.10;;;;;;5016720;28;20048;-69
2023/11/01 06:05:39;;;;;;;0.50;0.38;;;18.30;70.20;;;;;;5018118;28;20116;-65
2023/11/01 06:08:06;;;;;;;1.13;0.40;;;18.30;70.20;;;;;;5016390;28;20117;-65
2023/11/01 06:10:32;;;;;;;0.40;0.32;;;18.30;70.30;;;;;;5018238;28;20053;-69
2023/11/01 06:12:58;;;;;;;0.95;0.45;;;18.20;70.20;;;;;;5017343;28;20560;-66
2023/11/01 06:15:24;;;;;;;1.27;0.68;;;18.30;70.30;;;;;;5016082;28;20113;-67
2023/11/01 06:17:50;;;;;;;1.00;0.65;;;18.20;70.30;;;;;;5015261;28;20048;-66
2023/11/01 06:20:16;;;;;;;1.67;0.70;;;18.30;70.30;;;;;;4995676;28;20069;-64
2023/11/01 06:22:42;;;;;;;1.70;0.68;;;18.30;70.30;;;;;;5016456;28;20435;-66
2023/11/01 06:25:08;;;;;;;1.83;0.70;;;18.20;70.30;;;;;;5014095;28;20124;-65
2023/11/01 06:27:35;;;;;;;1.20;1.10;;;18.20;70.30;;;;;;5016784;28;20053;-66
2023/11/01 06:30:04;;;;;;;2.42;0.70;;;18.30;70.40;;;;;;5022907;28;20143;-65
2023/11/01 06:32:31;;;;;;;0.98;0.68;;;18.20;70.30;;;;;;5017419;28;20034;-66
2023/11/01 06:34:56;;;;;;;1.13;0.95;;;18.20;70.30;;;;;;5018235;28;20064;-68
2023/11/01 06:37:22;;;;;;;2.83;0.68;;;18.20;70.30;;;;;;5020925;28;20038;-68
2023/11/01 06:39:48;;;;;;;4.85;0.90;;;18.20;70.30;;;;;;5019555;28;20120;-67
2023/11/01 06:42:13;;;;;;;4.15;1.40;;;18.20;70.30;;;;;;5017013;28;20137;-70
2023/11/01 06:44:39;;;;;;;2.85;1.52;;;18.20;70.40;;;;;;5024781;28;20609;-69
2023/11/01 06:47:05;;;;;;;4.32;1.48;;;18.20;70.40;;;;;;5013077;28;20083;-68
2023/11/01 06:49:34;;;;;;;2.53;1.45;;;18.20;70.40;;;;;;5018399;28;20535;-69
2023/11/01 06:51:59;;;;;;;3.00;1.58;;;18.20;70.40;;;;;;5015443;28;20034;-67
2023/11/01 06:54:25;;;;;;;6.80;1.80;;;18.20;70.40;;;;;;5015024;28;20026;-68
2023/11/01 06:56:50;;;;;;;5.47;1.83;;;18.20;70.40;;;;;;5021587;28;20207;-68
2023/11/01 06:59:16;;;;;;;3.78;1.80;;;18.20;70.40;;;;;;5019653;28;20464;-68
2023/11/01 07:01:41;;;;;;;4.65;1.70;;;18.20;70.40;;;;;;5018980;28;20033;-68
2023/11/01 07:04:07;;;;;;;3.53;1.83;;;18.30;70.50;;;;;;5018139;28;20473;-69
2023/11/01 07:06:33;;;;;;;2.65;1.92;;;18.20;70.40;;;;;;5019279;28;20033;-69
2023/11/01 07:08:58;;;;;;;2.95;1.95;;;18.20;70.40;;;;;;5016652;28;20036;-66
2023/11/01 07:11:24;;;;;;;6.53;2.20;;;18.20;70.40;;;;;;5020895;28;20125;-67
2023/11/01 07:13:50;;;;;;;5.32;1.90;;;18.20;70.40;;;;;;5018675;28;20083;-67
2023/11/01 07:16:16;;;;;;;6.70;2.33;;;18.20;70.40;;;;;;5019482;28;20037;-67
2023/11/01 07:18:41;;;;;;;4.20;2.22;;;18.20;70.40;;;;;;5018833;28;20113;-66
2023/11/01 07:21:10;;;;;;;6.40;2.08;;;18.20;70.40;;;;;;5015632;28;20040;-68
2023/11/01 07:23:36;;;;;;;7.32;1.95;;;18.20;70.40;;;;;;5016271;28;20135;-68
2023/11/01 07:26:01;;;;;;;7.55;2.30;;;18.20;70.40;;;;;;5023560;28;20492;-67
2023/11/01 07:28:27;;;;;;;5.57;2.45;;;18.20;70.40;;;;;;5021524;28;20711;-65
2023/11/01 07:30:53;;;;;;;4.32;1.70;;;18.20;70.40;;;;;;5022831;28;20620;-66
2023/11/01 07:33:19;;;;;;;4.75;2.30;;;18.20;70.40;;;;;;5020842;28;20084;-65
2023/11/01 07:35:44;;;;;;;3.80;2.22;;;18.20;70.40;;;;;;5022360;28;20040;-65
2023/11/01 07:38:10;;;;;;;7.20;2.20;;;18.20;70.40;;;;;;5022099;28;20033;-67
2023/11/01 07:40:35;;;;;;;5.00;2.33;;;18.20;70.40;;;;;;5024824;28;20034;-67
2023/11/01 07:43:01;;;;;;;4.30;2.15;;;18.20;70.40;;;;;;5021211;28;20041;-67
2023/11/01 07:45:27;;;;;;;5.57;2.38;;;18.20;70.50;;;;;;5023663;28;20038;-66
2023/11/01 07:47:53;;;;;;;5.82;2.40;;;18.20;70.40;;;;;;5022558;28;20465;-64
2023/11/01 07:50:18;;;;;;;4.40;1.92;;;18.20;70.50;;;;;;5018604;28;20534;-66
2023/11/01 07:52:44;;;;;;;4.30;2.20;;;18.20;70.40;;;;;;5018810;28;20050;-68
2023/11/01 07:55:10;;;;;;;4.22;1.92;;;18.20;70.50;;;;;;5024447;28;20030;-66
2023/11/01 07:57:36;;;;;;;2.90;1.70;;;18.20;70.40;;;;;;5023475;28;20030;-64
2023/11/01 08:00:03;;;;;;;4.07;2.08;;;18.20;70.40;;;;;;5022499;28;20037;-63
2023/11/01 08:02:29;;;;;;;3.88;2.00;;;18.20;70.50;;;;;;5021116;28;20068;-65
2023/11/01 08:04:55;;;;;;;3.17;2.45;;;18.20;70.40;;;;;;5022289;28;20099;-63
2023/11/01 08:07:20;;;;;;;5.07;2.42;;;18.20;70.50;;;;;;5021242;28;20044;-65
2023/11/01 08:09:47;;;;;;;4.72;1.92;;;18.20;70.50;;;;;;5022839;28;20026;-64
2023/11/01 08:12:12;;;;;;;4.47;1.98;;;18.20;70.50;;;;;;5022536;28;20192;-65
2023/11/01 08:14:38;;;;;;;4.50;2.30;;;18.20;70.50;;;;;;5023516;28;20112;-64
2023/11/01 08:17:03;;;;;;;5.03;2.25;;;18.20;70.50;;;;;;5020665;28;20416;-65
2023/11/01 08:19:29;;;;;;;4.65;1.85;;;18.20;70.50;;;;;;5020988;28;20096;-65
2023/11/01 08:21:54;;;;;;;3.92;1.95;;;18.20;70.50;;;;;;5023571;28;20425;-66
2023/11/01 08:24:20;;;;;;;5.65;2.20;;;18.20;70.50;;;;;;5021075;28;20026;-66
2023/11/01 08:26:45;;;;;;;3.80;1.80;;;18.20;70.50;;;;;;5026598;28;20108;-65
2023/11/01 08:29:11;;;;;;;3.47;1.90;;;18.20;70.50;;;;;;5022526;28;20115;-66
2023/11/01 08:31:37;;;;;;;3.13;1.90;;;18.20;70.50;;;;;;5025579;28;20087;-65
2023/11/01 08:34:02;;;;;;;7.65;2.38;;;18.20;70.50;;;;;;5022574;28;20397;-67
2023/11/01 08:36:28;;;;;;;4.47;2.10;;;18.30;71.00;;;;;;5024308;28;20033;-67
2023/11/01 08:38:53;;;;;;;6.43;1.90;;;18.30;70.60;;;;;;5005805;28;20026;-68
2023/11/01 08:41:19;;;;;;;4.90;2.00;;;18.30;70.50;;;;;;5023716;28;20567;-68
2023/11/01 08:43:44;;;;;;;8.02;1.55;;;18.30;70.50;;;;;;5022108;28;20045;-67
2023/11/01 08:46:15;;;;;;;6.68;2.20;;;18.30;70.50;;;;;;5006767;28;20042;-69
2023/11/01 08:48:40;;;;;;;3.83;2.00;;;18.30;70.50;;;;;;5018619;28;20045;-67
2023/11/01 08:51:07;;;;;;;4.55;2.00;;;18.30;70.50;;;;;;5021835;28;20036;-69
2023/11/01 08:53:34;;;;;;;4.47;1.73;;;18.30;71.20;;;;;;5020615;28;20047;-70
2023/11/01 08:55:59;;;;;;;4.57;1.75;;;18.30;70.60;;;;;;5024341;28;20034;-71
2023/11/01 08:58:25;;;;;;;4.30;2.00;;;18.30;70.60;;;;;;5020514;28;20022;-69
2023/11/01 09:00:50;;;;;;;5.88;2.25;;;18.20;70.50;;;;;;5025763;28;20086;-68
2023/11/01 09:03:18;;;;;;;4.93;1.88;;;18.20;70.50;;;;;;5019314;28;20119;-66
2023/11/01 09:05:43;;;;;;;4.47;1.45;;;18.20;70.50;;;;;;5019499;28;20527;-68
2023/11/01 09:08:09;;;;;;;3.25;1.77;;;18.20;70.50;;;;;;5016785;28;20109;-67
2023/11/01 09:10:34;;;;;;;2.85;1.70;;;18.20;70.50;;;;;;4999764;28;20033;-67
2023/11/01 09:13:00;;;;;;;3.63;1.77;;;18.20;70.60;;;;;;5018794;28;20029;-67
2023/11/01 09:15:25;;;;;;;4.38;2.13;;;18.20;70.50;;;;;;5013096;28;20105;-71
2023/11/01 09:17:51;;;;;;;5.25;1.60;;;18.20;70.60;;;;;;5019955;28;20107;-66
2023/11/01 09:20:16;;;;;;;2.85;1.70;;;18.20;70.50;;;;;;5020905;28;20507;-67
2023/11/01 09:22:42;;;;;;;3.13;1.50;;;18.20;70.50;;;;;;4987477;28;20084;-69
2023/11/01 09:25:08;;;;;;;2.67;1.60;;;18.20;70.60;;;;;;5021598;28;20033;-67
2023/11/01 09:27:33;;;;;;;2.95;1.90;;;18.20;70.50;;;;;;5017880;28;20099;-67
2023/11/01 09:29:59;;;;;;;3.13;1.58;;;18.20;70.50;;;;;;5018961;28;20040;-67
2023/11/01 09:32:24;;;;;;;2.70;1.52;;;18.20;70.60;;;;;;5016749;28;20040;-69
2023/11/01 09:34:50;;;;;;;3.38;1.92;;;18.20;70.60;;;;;;5017723;28;20546;-69
2023/11/01 09:37:15;;;;;;;2.83;1.60;;;18.20;70.50;;;;;;5014846;28;20018;-68
2023/11/01 09:39:41;;;;;;;2.88;1.35;;;18.20;70.50;;;;;;5011360;28;20523;-68
2023/11/01 09:42:20;;;;;;;3.38;1.80;;;18.20;70.50;;;;;;5016411;28;20112;-69
2023/11/01 09:44:55;;;;;;;3.17;1.70;;;18.30;70.60;;;;;;5008859;28;20036;-69
2023/11/01 09:47:24;;;;;;;3.50;1.70;;;18.30;70.60;;;;;;5019054;28;20152;-67
2023/11/01 09:49:50;;;;;;;3.38;1.60;;;18.30;70.60;;;;;;5018635;28;20084;-68
2023/11/01 09:52:16;;;;;;;3.13;1.40;;;18.30;70.60;;;;;;5017422;28;20021;-69
2023/11/01 09:54:49;;;;;;;2.92;1.20;;;18.30;70.60;;;;;;5051121;22;20803;-55
2023/11/01 09:57:15;;;;;;;1.40;1.10;;;18.30;70.60;;;;;;5018533;28;20030;-58
2023/11/01 09:59:42;;;;;;;2.83;1.42;;;18.30;70.60;;;;;;5014177;28;20060;-59
2023/11/01 10:02:10;;;;;;;2.63;1.17;;;18.20;70.50;;;;;;5032418;28;20075;-56
2023/11/01 10:04:38;;;;;;;2.38;1.20;;;18.30;70.60;;;;;;5031854;28;20036;-59
2023/11/01 10:07:04;;;;;;;2.60;1.27;;;18.30;70.50;;;;;;5029301;28;20052;-59
2023/11/01 10:09:29;;;;;;;2.63;1.23;;;18.20;70.50;;;;;;5045109;28;20033;-56
2023/11/01 10:11:57;;;;;;;2.20;1.05;;;18.20;70.50;;;;;;5032297;28;20041;-58
2023/11/01 10:14:30;;;;;;;2.65;1.10;;;18.20;70.50;;;;;;5032762;28;20773;-53
2023/11/01 10:16:57;;;;;;;2.45;1.25;;;18.20;70.50;;;;;;5030560;28;20038;-56
2023/11/01 10:19:24;;;;;;;2.67;1.10;;;18.20;70.50;;;;;;5030723;28;20711;-56
2023/11/01 10:21:51;;;;;;;3.30;1.45;;;18.30;70.50;;;;;;5035374;28;20121;-56
2023/11/01 10:24:16;;;;;;;2.83;1.23;;;18.30;70.50;;;;;;5037407;28;20057;-59
2023/11/01 10:26:42;;;;;;;2.47;1.23;;;18.20;70.50;;;;;;5046552;28;20107;-57
2023/11/01 10:29:07;;;;;;;1.88;0.98;;;18.30;70.50;;;;;;5038076;28;20498;-57
2023/11/01 10:31:33;;;;;;;1.73;1.30;;;18.30;70.50;;;;;;5033188;28;20045;-57
2023/11/01 10:33:59;;;;;;;2.42;1.05;;;18.30;70.50;;;;;;5036620;28;20037;-55
2023/11/01 10:36:24;;;;;;;1.63;1.23;;;18.20;70.50;;;;;;5047205;28;20124;-57
2023/11/01 10:38:50;;;;;;;2.33;1.13;;;18.30;70.60;;;;;;5033459;28;20048;-58
2023/11/01 10:41:18;;;;;;;3.28;1.45;;;18.30;70.50;;;;;;5031529;28;20136;-58
2023/11/01 10:43:44;;;;;;;2.30;1.27;;;18.30;70.50;;;;;;5035934;28;20478;-55
2023/11/01 10:46:10;;;;;;;1.95;1.00;;;18.30;70.50;;;;;;5033453;28;20060;-56
2023/11/01 10:48:37;;;;;;;1.25;1.10;;;18.30;70.50;;;;;;5031844;28;20365;-56
2023/11/01 10:51:04;;;;;;;1.92;1.15;;;18.30;70.50;;;;;;5044934;28;20030;-57
2023/11/01 10:53:33;;;;;;;3.78;1.10;;;18.30;70.50;;;;;;5031512;28;20060;-59
2023/11/01 10:56:00;;;;;;;2.10;1.10;;;18.30;70.50;;;;;;5034410;28;20079;-56
2023/11/01 10:58:27;;;;;;;1.33;0.70;;;18.30;70.50;;;;;;5031346;28;20030;-57
2023/11/01 11:01:20;;;;;;;2.53;1.20;;;18.30;70.50;;;;;;5042761;28;20061;-58
2023/11/01 11:04:09;;;;;;;1.55;0.77;;;18.30;70.50;;;;;;5028398;28;20037;-56
2023/11/01 11:06:50;;;;;;;2.58;1.10;;;18.30;70.50;;;;;;5032490;28;20026;-56
2023/11/01 11:09:23;;;;;;;1.52;1.10;;;18.20;70.40;;;;;;5022816;28;20036;-58
2023/11/01 11:12:17;;;;;;;2.95;0.95;;;18.30;70.50;;;;;;5016838;28;20697;-58
2023/11/01 11:14:50;;;;;;;2.63;1.00;;;18.20;70.50;;;;;;5019142;28;20117;-57
2023/11/01 11:17:20;;;;;;;1.63;1.00;;;18.30;70.50;;;;;;5021827;28;20033;-55
2023/11/01 11:20:10;;;;;;;1.67;0.90;;;18.30;70.50;;;;;;5018484;28;20525;-58
2023/11/01 11:22:55;;;;;;;2.45;0.80;;;18.30;70.50;;;;;;5018417;28;20037;-56
2023/11/01 11:25:38;;;;;;;1.10;0.82;;;18.30;70.50;;;;;;5033471;28;20038;-56
2023/11/01 11:28:05;;;;;;;1.92;0.80;;;18.30;70.50;;;;;;5017765;28;20041;-56
2023/11/01 11:31:17;;;;;;;1.65;1.05;;;18.20;70.40;;;;;;5018309;28;20037;-58
2023/11/01 11:33:45;;;;;;;2.92;0.88;;;18.30;70.50;;;;;;5023141;28;20313;-54
2023/11/01 11:36:14;;;;;;;1.40;0.80;;;18.30;70.50;;;;;;5018553;28;20028;-55
2023/11/01 11:39:05;;;;;;;0.88;0.57;;;18.30;70.50;;;;;;5021443;28;20033;-57
2023/11/01 11:41:37;;;;;;;2.80;1.13;;;18.20;70.50;;;;;;5015686;28;20029;-56
2023/11/01 11:44:08;;;;;;;3.03;0.60;;;18.30;70.50;;;;;;5021701;28;20022;-55
2023/11/01 11:46:35;;;;;;;1.00;0.75;;;18.20;70.50;;;;;;5017301;28;20025;-54
2023/11/01 11:49:02;;;;;;;0.93;0.60;;;18.30;70.50;;;;;;5018871;28;20107;-55
2023/11/01 11:51:35;;;;;;;1.25;0.80;;;18.30;70.50;;;;;;5016887;28;20034;-57
2023/11/01 11:54:15;;;;;;;2.55;0.75;;;18.30;70.50;;;;;;5016285;28;20068;-58
2023/11/01 11:56:41;;;;;;;2.75;0.98;;;18.30;71.10;;;;;;5021249;28;20056;-54
2023/11/01 11:59:09;;;;;;;0.85;0.60;;;18.30;70.50;;;;;;5019055;28;20029;-57
2023/11/01 12:01:34;;;;;;;2.20;1.00;;;18.30;70.50;;;;;;5022612;28;20033;-53
2023/11/01 12:04:00;;;;;;;2.30;0.93;;;18.30;70.50;;;;;;5023558;28;20111;-57
2023/11/01 12:06:38;;;;;;;3.30;1.00;;;18.30;70.50;;;;;;5018369;28;20034;-56
2023/11/01 12:09:10;;;;;;;1.23;0.73;;;18.30;70.50;;;;;;5019544;28;20029;-58
2023/11/01 12:11:36;;;;;;;1.08;0.77;;;18.30;70.50;;;;;;5017051;28;20060;-57
2023/11/01 12:14:01;;;;;;;2.88;0.77;;;18.30;70.50;;;;;;5012394;28;20103;-53
2023/11/01 12:16:28;;;;;;;2.45;0.70;;;18.30;70.50;;;;;;5026734;28;20389;-55
2023/11/01 12:19:10;;;;;;;2.67;0.73;;;18.30;70.50;;;;;;5018238;28;20029;-58
2023/11/01 12:21:42;;;;;;;0.93;0.52;;;18.30;70.50;;;;;;5016324;28;20034;-57
2023/11/01 12:24:10;;;;;;;2.15;0.80;;;18.30;70.50;;;;;;5017188;28;20034;-55
2023/11/01 12:26:55;;;;;;;2.45;0.88;;;18.30;70.50;;;;;;5019763;28;20513;-59
2023/11/01 12:29:21;;;;;;;1.60;0.68;;;18.20;70.40;;;;;;5023470;28;20120;-53
2023/11/01 12:32:22;;;;;;;1.00;0.65;;;18.20;70.40;;;;;;5019556;28;20542;-54
2023/11/01 12:34:47;;;;;;;2.78;0.70;;;18.20;70.40;;;;;;4979827;28;20130;-53
2023/11/01 12:37:21;;;;;;;1.55;0.63;;;18.30;70.50;;;;;;5007559;28;20124;-50
2023/11/01 12:40:15;;;;;;;1.20;0.52;;;18.30;70.40;;;;;;5015172;28;20033;-56
2023/11/01 12:42:46;;;;;;;0.65;0.47;;;18.30;70.50;;;;;;5004657;28;20052;-52
2023/11/01 12:45:13;;;;;;;1.83;0.80;;;18.30;70.50;;;;;;5017312;28;20025;-53
2023/11/01 12:47:47;;;;;;;1.70;0.70;;;18.30;70.50;;;;;;5016547;28;20125;-52